Time;durP1;ratioP1;P1;durP2;ratioP2;P2;SDS_P1;SDS_P2;PMS_P1;PMS_P2;Temp;Humidity;BMP_temperature;BMP_pressure;BME280_temperature;BME280_humidity;BME280_pressure;Samples;Min_cycle;Max_cycle;Signal;HPM_P1;HPM_P2
2021/07/23 00:01:48;;;;;;;16.65;10.88;;;;;;;;;;5091683;28;20028;-51
2021/07/23 00:04:14;;;;;;;15.27;10.00;;;;;;;;;;5065113;28;20032;-49
2021/07/23 00:06:40;;;;;;;16.20;10.52;;;;;;;;;;5092167;28;20020;-49
2021/07/23 00:09:06;;;;;;;16.63;11.18;;;;;;;;;;5091692;28;20048;-50
2021/07/23 00:11:32;;;;;;;14.82;9.73;;;;;;;;;;5075914;28;20427;-50
2021/07/23 00:13:59;;;;;;;15.48;10.30;;;;;;;;;;5072146;28;20134;-50
2021/07/23 00:16:25;;;;;;;18.65;10.77;;;;;;;;;;5077771;28;20080;-52
2021/07/23 00:18:51;;;;;;;13.35;9.70;;;;;;;;;;5091616;28;20099;-51
2021/07/23 00:21:17;;;;;;;16.77;10.52;;;;;;;;;;5092312;28;20395;-52
2021/07/23 00:23:43;;;;;;;14.55;9.93;;;;;;;;;;5091922;28;20024;-51
2021/07/23 00:26:19;;;;;;;13.48;9.88;;;;;;;;;;5092127;28;20024;-50
2021/07/23 00:28:45;;;;;;;15.27;10.23;;;;;;;;;;5091920;28;20024;-49
2021/07/23 00:31:11;;;;;;;16.48;10.48;;;;;;;;;;5091797;28;20677;-54
2021/07/23 00:33:37;;;;;;;16.23;9.90;;;;;;;;;;5094485;28;20031;-50
2021/07/23 00:36:03;;;;;;;15.38;10.45;;;;;;;;;;5095851;28;20527;-50
2021/07/23 00:38:29;;;;;;;17.92;11.13;;;;;;;;;;5095679;28;20036;-50
2021/07/23 00:40:55;;;;;;;16.45;11.15;;;;;;;;;;5095621;28;20474;-50
2021/07/23 00:43:21;;;;;;;14.13;10.13;;;;;;;;;;5082050;28;20024;-51
2021/07/23 00:45:47;;;;;;;17.48;11.93;;;;;;;;;;5086562;28;20465;-49
2021/07/23 00:48:14;;;;;;;15.95;11.48;;;;;;;;;;5095497;28;20452;-52
2021/07/23 00:50:41;;;;;;;16.30;10.63;;;;;;;;;;5095584;28;20535;-50
2021/07/23 00:53:07;;;;;;;15.35;10.88;;;;;;;;;;5095781;28;20115;-49
2021/07/23 00:55:33;;;;;;;18.40;11.70;;;;;;;;;;5095417;28;20028;-50
2021/07/23 00:58:00;;;;;;;18.08;11.15;;;;;;;;;;5095269;28;20027;-50
2021/07/23 01:00:26;;;;;;;15.68;10.20;;;;;;;;;;5095980;28;20036;-55
2021/07/23 01:02:52;;;;;;;12.60;9.00;;;;;;;;;;5079761;28;20025;-50
2021/07/23 01:05:18;;;;;;;14.00;10.25;;;;;;;;;;5084796;28;20463;-50
2021/07/23 01:07:45;;;;;;;15.00;10.27;;;;;;;;;;5095166;28;20103;-50
2021/07/23 01:10:11;;;;;;;16.35;11.30;;;;;;;;;;5090417;28;20070;-51
2021/07/23 01:12:37;;;;;;;15.77;10.77;;;;;;;;;;5082048;28;20351;-51
2021/07/23 01:15:04;;;;;;;16.55;9.93;;;;;;;;;;5063485;28;20025;-53
2021/07/23 01:17:30;;;;;;;14.85;9.70;;;;;;;;;;5095129;28;20051;-51
2021/07/23 01:19:59;;;;;;;18.02;11.90;;;;;;;;;;5094952;28;20386;-52
2021/07/23 01:22:27;;;;;;;18.77;10.80;;;;;;;;;;5095016;28;20031;-52
2021/07/23 01:24:53;;;;;;;16.92;11.10;;;;;;;;;;5094898;28;20452;-52
2021/07/23 01:27:19;;;;;;;15.80;10.57;;;;;;;;;;5095380;28;20515;-50
2021/07/23 01:29:45;;;;;;;16.33;10.70;;;;;;;;;;5094855;28;20499;-50
2021/07/23 01:32:11;;;;;;;15.57;10.40;;;;;;;;;;5095005;28;20024;-50
2021/07/23 01:34:39;;;;;;;17.70;11.07;;;;;;;;;;5094833;28;20035;-53
2021/07/23 01:37:05;;;;;;;14.13;9.82;;;;;;;;;;5094956;28;20020;-53
2021/07/23 01:39:32;;;;;;;15.02;10.30;;;;;;;;;;5094332;28;20408;-50
2021/07/23 01:41:58;;;;;;;13.75;9.90;;;;;;;;;;5094725;28;20024;-52
2021/07/23 01:44:23;;;;;;;18.55;10.82;;;;;;;;;;5071333;28;20027;-51
2021/07/23 01:46:50;;;;;;;18.38;10.57;;;;;;;;;;5094405;28;20035;-50
2021/07/23 01:49:16;;;;;;;14.82;10.43;;;;;;;;;;5094250;28;20024;-51
2021/07/23 01:51:42;;;;;;;15.20;10.07;;;;;;;;;;5094498;28;20330;-53
2021/07/23 01:54:08;;;;;;;14.85;10.45;;;;;;;;;;5094632;28;20039;-50
2021/07/23 01:56:34;;;;;;;15.65;10.30;;;;;;;;;;5094539;28;20440;-52
2021/07/23 01:58:59;;;;;;;14.60;10.15;;;;;;;;;;5094209;28;20065;-52
2021/07/23 02:01:25;;;;;;;17.55;10.57;;;;;;;;;;5094196;28;20059;-50
2021/07/23 02:03:51;;;;;;;17.15;10.45;;;;;;;;;;5067458;28;20024;-50
2021/07/23 02:06:17;;;;;;;14.68;10.30;;;;;;;;;;5094224;28;20020;-52
2021/07/23 02:08:43;;;;;;;16.95;11.25;;;;;;;;;;5093618;28;20101;-50
2021/07/23 02:11:09;;;;;;;14.93;10.52;;;;;;;;;;5081361;28;20106;-50
2021/07/23 02:13:35;;;;;;;17.13;10.65;;;;;;;;;;5077911;28;20068;-50
2021/07/23 02:16:05;;;;;;;14.80;10.63;;;;;;;;;;5073257;28;20036;-51
2021/07/23 02:18:31;;;;;;;14.18;10.48;;;;;;;;;;5086924;28;20546;-51
2021/07/23 02:20:57;;;;;;;16.95;11.00;;;;;;;;;;5074210;28;20424;-50
2021/07/23 02:23:23;;;;;;;16.10;10.00;;;;;;;;;;5094124;28;20028;-52
2021/07/23 02:25:49;;;;;;;16.52;10.93;;;;;;;;;;5092668;28;20028;-52
2021/07/23 02:28:15;;;;;;;16.20;10.30;;;;;;;;;;5093590;28;20020;-52
2021/07/23 02:30:41;;;;;;;13.18;10.05;;;;;;;;;;5094212;28;20036;-53
2021/07/23 02:33:07;;;;;;;14.18;9.82;;;;;;;;;;5093377;28;20032;-51
2021/07/23 02:35:33;;;;;;;14.00;9.60;;;;;;;;;;5093736;28;20027;-51
2021/07/23 02:37:59;;;;;;;14.65;9.55;;;;;;;;;;5091848;28;20028;-50
2021/07/23 02:40:25;;;;;;;15.13;10.63;;;;;;;;;;5093915;28;20453;-50
2021/07/23 02:42:51;;;;;;;15.50;9.98;;;;;;;;;;5087845;28;20384;-51
2021/07/23 02:45:17;;;;;;;16.35;10.35;;;;;;;;;;5074631;28;20028;-50
2021/07/23 02:47:44;;;;;;;16.40;11.32;;;;;;;;;;5092852;28;20111;-50
2021/07/23 02:50:10;;;;;;;14.25;10.52;;;;;;;;;;5093423;28;20095;-51
2021/07/23 02:52:36;;;;;;;16.65;10.10;;;;;;;;;;5093539;28;20032;-50
2021/07/23 02:55:03;;;;;;;13.65;10.20;;;;;;;;;;5092837;28;20054;-51
2021/07/23 02:57:29;;;;;;;15.27;10.70;;;;;;;;;;5093190;28;20085;-50
2021/07/23 02:59:55;;;;;;;15.88;10.82;;;;;;;;;;5093128;28;20103;-50
2021/07/23 03:02:21;;;;;;;16.25;10.40;;;;;;;;;;5085457;28;20040;-50
2021/07/23 03:04:47;;;;;;;20.17;11.48;;;;;;;;;;5073222;28;20699;-51
2021/07/23 03:07:13;;;;;;;16.30;11.02;;;;;;;;;;5093169;28;20020;-52
2021/07/23 03:09:39;;;;;;;20.38;11.10;;;;;;;;;;5091940;28;20043;-50
2021/07/23 03:12:05;;;;;;;15.43;10.95;;;;;;;;;;5076554;28;20028;-51
2021/07/23 03:14:32;;;;;;;14.02;10.48;;;;;;;;;;5065209;28;20475;-50
2021/07/23 03:16:57;;;;;;;14.30;10.57;;;;;;;;;;5086819;28;20028;-51
2021/07/23 03:19:23;;;;;;;20.00;11.70;;;;;;;;;;5092458;28;20051;-53
2021/07/23 03:21:49;;;;;;;15.18;10.80;;;;;;;;;;5092872;28;20076;-50
2021/07/23 03:24:15;;;;;;;19.38;12.10;;;;;;;;;;5092926;28;20016;-56
2021/07/23 03:26:41;;;;;;;16.85;11.43;;;;;;;;;;5092825;28;20020;-51
2021/07/23 03:29:07;;;;;;;16.33;10.25;;;;;;;;;;5092392;28;20024;-52
2021/07/23 03:31:33;;;;;;;17.00;11.52;;;;;;;;;;5092376;28;20495;-51
2021/07/23 03:33:59;;;;;;;18.75;12.35;;;;;;;;;;5092538;28;20837;-51
2021/07/23 03:36:26;;;;;;;18.73;11.95;;;;;;;;;;5092623;28;20032;-54
2021/07/23 03:38:52;;;;;;;17.58;11.48;;;;;;;;;;5092391;28;20028;-54
2021/07/23 03:41:18;;;;;;;17.67;10.90;;;;;;;;;;5092526;28;20031;-50
2021/07/23 03:43:44;;;;;;;16.48;11.27;;;;;;;;;;5072308;28;20469;-53
2021/07/23 03:46:10;;;;;;;17.52;10.88;;;;;;;;;;5087654;28;20070;-53
2021/07/23 03:48:35;;;;;;;18.98;11.88;;;;;;;;;;5091957;28;20464;-53
2021/07/23 03:51:01;;;;;;;17.33;11.15;;;;;;;;;;5092534;28;20369;-55
2021/07/23 03:53:27;;;;;;;16.88;12.18;;;;;;;;;;5092248;28;20391;-50
2021/07/23 03:55:53;;;;;;;15.02;10.98;;;;;;;;;;5092301;28;20024;-51
2021/07/23 03:58:19;;;;;;;13.88;10.13;;;;;;;;;;5092022;28;20028;-50
2021/07/23 04:00:45;;;;;;;16.73;10.27;;;;;;;;;;5092100;28;20024;-51
2021/07/23 04:03:11;;;;;;;18.30;10.73;;;;;;;;;;5070883;28;20039;-54
2021/07/23 04:05:37;;;;;;;16.52;12.05;;;;;;;;;;5086589;28;20135;-50
2021/07/23 04:08:06;;;;;;;18.10;10.90;;;;;;;;;;5091716;28;20024;-51
2021/07/23 04:10:32;;;;;;;17.88;11.65;;;;;;;;;;5084405;28;20049;-51
2021/07/23 04:12:58;;;;;;;16.77;11.90;;;;;;;;;;5079126;28;20456;-51
2021/07/23 04:15:24;;;;;;;19.23;12.27;;;;;;;;;;5062729;28;20073;-51
2021/07/23 04:17:50;;;;;;;18.00;10.75;;;;;;;;;;5091719;28;20024;-51
2021/07/23 04:20:16;;;;;;;17.67;11.43;;;;;;;;;;5092024;28;20085;-52
2021/07/23 04:22:42;;;;;;;16.67;10.90;;;;;;;;;;5092496;28;20019;-51
2021/07/23 04:25:09;;;;;;;21.42;11.38;;;;;;;;;;5092023;28;20333;-53
2021/07/23 04:27:35;;;;;;;16.77;11.57;;;;;;;;;;5090613;28;20028;-53
2021/07/23 04:30:01;;;;;;;21.20;12.00;;;;;;;;;;5091771;28;20082;-53
2021/07/23 04:32:27;;;;;;;20.55;12.85;;;;;;;;;;5091761;28;20036;-50
2021/07/23 04:34:53;;;;;;;20.50;12.25;;;;;;;;;;5091896;28;20468;-50
2021/07/23 04:37:19;;;;;;;19.50;10.93;;;;;;;;;;5091919;28;20036;-50
2021/07/23 04:39:45;;;;;;;17.10;11.88;;;;;;;;;;5091430;28;20024;-50
2021/07/23 04:42:10;;;;;;;21.00;13.23;;;;;;;;;;5091779;28;20103;-50
2021/07/23 04:44:36;;;;;;;21.55;13.30;;;;;;;;;;5067907;28;20054;-52
2021/07/23 04:47:02;;;;;;;19.05;12.48;;;;;;;;;;5091605;28;20028;-50
2021/07/23 04:49:29;;;;;;;28.73;14.55;;;;;;;;;;5091500;28;20364;-50
2021/07/23 04:51:55;;;;;;;23.42;14.98;;;;;;;;;;5091868;28;20085;-50
2021/07/23 04:54:21;;;;;;;21.00;13.88;;;;;;;;;;5091603;28;20107;-51
2021/07/23 04:56:50;;;;;;;24.48;13.93;;;;;;;;;;5091782;28;20032;-51
2021/07/23 04:59:16;;;;;;;21.08;12.60;;;;;;;;;;5091253;28;20051;-52
2021/07/23 05:01:42;;;;;;;23.60;13.50;;;;;;;;;;5091349;28;20373;-50
2021/07/23 05:04:09;;;;;;;21.45;14.50;;;;;;;;;;5064433;28;20046;-50
2021/07/23 05:06:35;;;;;;;25.98;15.05;;;;;;;;;;5091799;28;20027;-53
2021/07/23 05:09:01;;;;;;;21.70;14.60;;;;;;;;;;5091160;28;20056;-53
2021/07/23 05:11:27;;;;;;;21.88;14.40;;;;;;;;;;5087522;28;20032;-50
2021/07/23 05:13:53;;;;;;;19.73;13.77;;;;;;;;;;5074480;28;20483;-51
2021/07/23 05:16:19;;;;;;;23.35;15.52;;;;;;;;;;5075001;28;20036;-52
2021/07/23 05:18:45;;;;;;;19.60;13.73;;;;;;;;;;5091819;28;20813;-51
2021/07/23 05:21:11;;;;;;;24.95;14.10;;;;;;;;;;5095471;28;20031;-51
2021/07/23 05:23:39;;;;;;;26.30;14.43;;;;;;;;;;5095270;28;20028;-50
2021/07/23 05:26:05;;;;;;;21.75;13.20;;;;;;;;;;5095405;28;20024;-51
2021/07/23 05:28:32;;;;;;;22.08;15.20;;;;;;;;;;5094430;28;20024;-51
2021/07/23 05:30:59;;;;;;;23.42;14.82;;;;;;;;;;5095492;28;20417;-52
2021/07/23 05:33:25;;;;;;;23.38;14.50;;;;;;;;;;5094644;28;20020;-51
2021/07/23 05:35:51;;;;;;;25.15;15.15;;;;;;;;;;5095023;28;20028;-50
2021/07/23 05:38:17;;;;;;;26.13;15.98;;;;;;;;;;5094530;28;20357;-50
2021/07/23 05:40:43;;;;;;;24.13;15.27;;;;;;;;;;5094849;28;20020;-51
2021/07/23 05:43:09;;;;;;;21.23;14.10;;;;;;;;;;5083581;28;20028;-50
2021/07/23 05:45:38;;;;;;;21.10;14.20;;;;;;;;;;5081960;28;20047;-50
2021/07/23 05:48:04;;;;;;;21.83;14.90;;;;;;;;;;5094282;28;20435;-52
2021/07/23 05:50:30;;;;;;;18.73;12.63;;;;;;;;;;5094489;28;20032;-54
2021/07/23 05:52:56;;;;;;;26.48;13.05;;;;;;;;;;5094579;28;20085;-51
2021/07/23 05:55:22;;;;;;;21.98;13.02;;;;;;;;;;5094437;28;20024;-51
2021/07/23 05:57:49;;;;;;;23.67;14.90;;;;;;;;;;5094175;28;20028;-52
2021/07/23 06:00:15;;;;;;;27.80;15.25;;;;;;;;;;5094425;28;20050;-52
2021/07/23 06:02:41;;;;;;;27.65;15.68;;;;;;;;;;5081407;28;20035;-50
2021/07/23 06:05:07;;;;;;;24.13;15.15;;;;;;;;;;5080124;28;20107;-52
2021/07/23 06:07:33;;;;;;;21.30;14.32;;;;;;;;;;5094046;28;20108;-51
2021/07/23 06:09:59;;;;;;;26.52;14.27;;;;;;;;;;5090242;28;20756;-53
2021/07/23 06:12:26;;;;;;;22.17;14.27;;;;;;;;;;5081280;28;20074;-53
2021/07/23 06:14:52;;;;;;;22.58;14.82;;;;;;;;;;5060434;28;20551;-50
2021/07/23 06:17:18;;;;;;;23.63;15.45;;;;;;;;;;5093308;28;20146;-51
2021/07/23 06:19:44;;;;;;;21.98;13.80;;;;;;;;;;5093520;28;20028;-50
2021/07/23 06:22:10;;;;;;;21.83;13.25;;;;;;;;;;5093956;28;20028;-50
2021/07/23 06:24:36;;;;;;;20.50;14.07;;;;;;;;;;5093728;28;20036;-54
2021/07/23 06:27:02;;;;;;;22.92;13.77;;;;;;;;;;5093855;28;20388;-50
2021/07/23 06:29:28;;;;;;;20.92;13.15;;;;;;;;;;5093595;28;20024;-50
2021/07/23 06:31:58;;;;;;;17.10;11.40;;;;;;;;;;5093734;28;20024;-50
2021/07/23 06:34:24;;;;;;;22.80;13.02;;;;;;;;;;5093823;28;20376;-50
2021/07/23 06:36:50;;;;;;;23.42;13.55;;;;;;;;;;5093374;28;20028;-50
2021/07/23 06:39:16;;;;;;;19.92;12.23;;;;;;;;;;5079726;28;20058;-50
2021/07/23 06:41:42;;;;;;;20.05;12.38;;;;;;;;;;5093724;28;20095;-50
2021/07/23 06:44:08;;;;;;;20.05;11.65;;;;;;;;;;5093324;28;20452;-51
2021/07/23 06:46:34;;;;;;;18.50;12.20;;;;;;;;;;5093746;28;20412;-50
2021/07/23 06:49:00;;;;;;;17.65;11.57;;;;;;;;;;5092728;28;20024;-52
2021/07/23 06:51:25;;;;;;;16.00;11.30;;;;;;;;;;5093669;28;20024;-51
2021/07/23 06:53:51;;;;;;;17.15;10.98;;;;;;;;;;5093018;28;20023;-50
2021/07/23 06:56:17;;;;;;;17.40;10.77;;;;;;;;;;5093589;28;20035;-52
2021/07/23 06:58:43;;;;;;;17.38;11.07;;;;;;;;;;5092937;28;20082;-52
2021/07/23 07:01:09;;;;;;;16.40;10.82;;;;;;;;;;5093159;28;20032;-50
2021/07/23 07:03:36;;;;;;;14.00;9.27;;;;;;;;;;5065031;28;20025;-50
2021/07/23 07:06:02;;;;;;;16.52;9.38;;;;;;;;;;5090714;28;20023;-51
2021/07/23 07:08:28;;;;;;;11.73;8.77;;;;;;;;;;5086030;28;20059;-50
2021/07/23 07:10:54;;;;;;;14.80;9.02;;;;;;;;;;5082272;28;20032;-54
2021/07/23 07:13:20;;;;;;;12.43;8.45;;;;;;;;;;5074626;28;20047;-52
2021/07/23 07:15:46;;;;;;;10.65;8.10;;;;;;;;;;5068329;28;20150;-50
2021/07/23 07:18:12;;;;;;;11.60;8.23;;;;;;;;;;5092290;28;20024;-52
2021/07/23 07:20:38;;;;;;;13.55;8.15;;;;;;;;;;5092791;28;20035;-51
2021/07/23 07:23:04;;;;;;;10.85;7.55;;;;;;;;;;5092476;28;20027;-51
2021/07/23 07:25:33;;;;;;;9.50;7.10;;;;;;;;;;5092558;28;20016;-50
2021/07/23 07:28:00;;;;;;;11.20;7.45;;;;;;;;;;5092350;28;20111;-51
2021/07/23 07:30:26;;;;;;;11.63;7.90;;;;;;;;;;5092623;28;20032;-50
2021/07/23 07:32:52;;;;;;;13.25;7.90;;;;;;;;;;5080535;28;20020;-51
2021/07/23 07:35:18;;;;;;;9.20;7.15;;;;;;;;;;5092542;28;20181;-52
2021/07/23 07:37:44;;;;;;;10.32;6.97;;;;;;;;;;5091520;28;20460;-51
2021/07/23 07:40:10;;;;;;;19.35;7.70;;;;;;;;;;5092336;28;20086;-52
2021/07/23 07:42:36;;;;;;;11.32;8.05;;;;;;;;;;5092043;28;20032;-51
2021/07/23 07:45:03;;;;;;;9.90;7.20;;;;;;;;;;5092410;28;20046;-51
2021/07/23 07:47:29;;;;;;;12.10;6.80;;;;;;;;;;5092357;28;20036;-51
2021/07/23 07:49:55;;;;;;;14.48;8.80;;;;;;;;;;5084466;28;20370;-51
2021/07/23 07:52:22;;;;;;;10.57;7.00;;;;;;;;;;5088408;28;20029;-50
2021/07/23 07:54:48;;;;;;;9.20;6.93;;;;;;;;;;5092499;28;20852;-51
2021/07/23 07:57:15;;;;;;;10.93;7.15;;;;;;;;;;5092207;28;20031;-51
2021/07/23 07:59:41;;;;;;;10.88;6.72;;;;;;;;;;5091969;28;20080;-50
2021/07/23 08:02:11;;;;;;;13.98;6.60;;;;;;;;;;5088787;28;20116;-50
2021/07/23 08:04:37;;;;;;;9.38;6.22;;;;;;;;;;5051939;28;20029;-55
2021/07/23 08:07:09;;;;;;;8.18;5.40;;;;;;;;;;5074860;28;20056;-50
2021/07/23 08:09:47;;;;;;;11.73;5.78;;;;;;;;;;5091489;28;20561;-51
2021/07/23 08:12:13;;;;;;;6.30;5.28;;;;;;;;;;5077740;28;20028;-52
2021/07/23 08:14:39;;;;;;;8.10;5.65;;;;;;;;;;5057730;28;20021;-50
2021/07/23 08:17:05;;;;;;;8.80;5.32;;;;;;;;;;5089264;28;20047;-50
2021/07/23 08:19:31;;;;;;;8.13;5.78;;;;;;;;;;5092025;28;20468;-50
2021/07/23 08:21:57;;;;;;;9.18;5.13;;;;;;;;;;5073781;28;20028;-51
2021/07/23 08:24:23;;;;;;;7.50;5.70;;;;;;;;;;5092253;28;20095;-50
2021/07/23 08:26:49;;;;;;;11.15;4.95;;;;;;;;;;5091662;28;20043;-50
2021/07/23 08:29:15;;;;;;;9.63;5.07;;;;;;;;;;5091837;28;20020;-52
2021/07/23 08:31:41;;;;;;;11.25;5.60;;;;;;;;;;5091465;28;20031;-52
2021/07/23 08:34:07;;;;;;;6.57;4.57;;;;;;;;;;5086694;28;20074;-52
2021/07/23 08:36:33;;;;;;;8.07;5.25;;;;;;;;;;5090954;28;20032;-50
2021/07/23 08:38:59;;;;;;;8.90;5.53;;;;;;;;;;5091665;28;20025;-51
2021/07/23 08:41:25;;;;;;;10.50;6.10;;;;;;;;;;5091719;28;20372;-52
2021/07/23 08:43:51;;;;;;;12.57;5.47;;;;;;;;;;5091832;28;20051;-53
2021/07/23 08:46:17;;;;;;;10.60;5.35;;;;;;;;;;5091507;28;20028;-51
2021/07/23 08:48:43;;;;;;;8.35;5.38;;;;;;;;;;5091672;28;20047;-51
2021/07/23 08:51:10;;;;;;;10.95;5.95;;;;;;;;;;5091755;28;20032;-51
2021/07/23 08:53:36;;;;;;;9.68;5.60;;;;;;;;;;5092427;28;20028;-50
2021/07/23 08:56:02;;;;;;;7.93;5.18;;;;;;;;;;5095587;28;20139;-51
2021/07/23 08:58:30;;;;;;;11.40;5.47;;;;;;;;;;5095307;28;20032;-52
2021/07/23 09:01:00;;;;;;;8.20;5.15;;;;;;;;;;5095370;28;20050;-51
2021/07/23 09:03:31;;;;;;;6.85;4.85;;;;;;;;;;5070427;28;20017;-50
2021/07/23 09:05:58;;;;;;;8.27;5.85;;;;;;;;;;5068688;28;20028;-51
2021/07/23 09:08:24;;;;;;;6.50;4.55;;;;;;;;;;5088089;28;20031;-50
2021/07/23 09:11:04;;;;;;;8.85;5.20;;;;;;;;;;5085379;28;20110;-50
2021/07/23 09:13:30;;;;;;;7.00;5.00;;;;;;;;;;5075362;28;20024;-51
2021/07/23 09:15:58;;;;;;;7.28;5.05;;;;;;;;;;5073354;28;20024;-50
2021/07/23 09:18:27;;;;;;;7.28;4.82;;;;;;;;;;5092842;28;20077;-50
2021/07/23 09:20:57;;;;;;;6.05;4.88;;;;;;;;;;5085210;28;20410;-50
2021/07/23 09:23:33;;;;;;;7.97;4.90;;;;;;;;;;5095009;28;20395;-51
2021/07/23 09:26:14;;;;;;;8.02;4.93;;;;;;;;;;5092393;28;20162;-52
2021/07/23 09:28:45;;;;;;;9.65;5.70;;;;;;;;;;5094852;28;20103;-50
2021/07/23 09:31:19;;;;;;;11.18;5.78;;;;;;;;;;5092570;28;20035;-54
2021/07/23 09:33:45;;;;;;;12.98;5.82;;;;;;;;;;5073829;28;20036;-50
2021/07/23 09:36:12;;;;;;;8.00;5.22;;;;;;;;;;5095301;28;20039;-53
2021/07/23 09:38:39;;;;;;;9.48;5.35;;;;;;;;;;5094111;28;20024;-53
2021/07/23 09:41:07;;;;;;;7.43;5.63;;;;;;;;;;5094913;28;20058;-51
2021/07/23 09:43:34;;;;;;;8.45;6.10;;;;;;;;;;5094736;28;20112;-51
2021/07/23 09:46:20;;;;;;;10.35;5.40;;;;;;;;;;5094658;28;20017;-51
2021/07/23 09:48:47;;;;;;;10.02;6.45;;;;;;;;;;5094296;28;20060;-53
2021/07/23 09:51:13;;;;;;;8.35;5.50;;;;;;;;;;5094924;28;20110;-50
2021/07/23 09:53:39;;;;;;;7.82;5.28;;;;;;;;;;5094180;28;20601;-51
2021/07/23 09:56:06;;;;;;;10.82;6.60;;;;;;;;;;5079321;28;20031;-50
2021/07/23 09:58:35;;;;;;;10.40;5.90;;;;;;;;;;5093659;28;20157;-51
2021/07/23 10:01:03;;;;;;;8.30;5.85;;;;;;;;;;5095200;28;20661;-50
2021/07/23 10:03:29;;;;;;;11.50;7.05;;;;;;;;;;5072650;28;20021;-51
2021/07/23 10:06:07;;;;;;;14.80;6.60;;;;;;;;;;5093282;28;20093;-51
2021/07/23 10:08:34;;;;;;;14.23;7.38;;;;;;;;;;5093713;28;20103;-52
2021/07/23 10:11:01;;;;;;;9.80;6.60;;;;;;;;;;5082301;28;20030;-50
2021/07/23 10:13:29;;;;;;;9.73;6.00;;;;;;;;;;5074451;28;20440;-50
2021/07/23 10:15:55;;;;;;;7.47;5.10;;;;;;;;;;5071181;28;20020;-50
2021/07/23 10:18:22;;;;;;;9.40;5.70;;;;;;;;;;5093825;28;20103;-51
2021/07/23 10:20:48;;;;;;;8.45;5.72;;;;;;;;;;5093962;28;20032;-50
2021/07/23 10:23:19;;;;;;;8.10;5.35;;;;;;;;;;5093847;28;20031;-53
2021/07/23 10:25:47;;;;;;;11.32;5.65;;;;;;;;;;5094079;28;20039;-51
2021/07/23 10:28:13;;;;;;;12.05;6.32;;;;;;;;;;5093616;28;20111;-50
2021/07/23 10:30:40;;;;;;;9.02;6.45;;;;;;;;;;5093888;28;20017;-52
2021/07/23 10:33:06;;;;;;;11.48;6.13;;;;;;;;;;5090403;28;20089;-50
2021/07/23 10:35:34;;;;;;;9.68;5.78;;;;;;;;;;5084175;28;20024;-52
2021/07/23 10:38:00;;;;;;;9.05;5.32;;;;;;;;;;5092636;28;20507;-50
2021/07/23 10:40:40;;;;;;;9.52;5.80;;;;;;;;;;5093837;28;20476;-53
2021/07/23 10:43:24;;;;;;;7.95;5.45;;;;;;;;;;5093724;28;20028;-51
2021/07/23 10:45:50;;;;;;;10.50;6.10;;;;;;;;;;5093485;28;20091;-50
2021/07/23 10:48:36;;;;;;;7.47;5.25;;;;;;;;;;5086470;28;20103;-50
2021/07/23 10:51:02;;;;;;;9.70;5.07;;;;;;;;;;5092036;28;20030;-50
2021/07/23 10:53:28;;;;;;;10.88;4.90;;;;;;;;;;5093534;28;20016;-50
2021/07/23 10:55:54;;;;;;;8.35;4.75;;;;;;;;;;5093214;28;20491;-50
2021/07/23 10:58:20;;;;;;;8.35;5.13;;;;;;;;;;5093253;28;20067;-50
2021/07/23 11:00:54;;;;;;;10.73;5.32;;;;;;;;;;5093038;28;20020;-50
2021/07/23 11:03:36;;;;;;;6.13;4.30;;;;;;;;;;5069705;28;20036;-50
2021/07/23 11:06:13;;;;;;;7.57;4.60;;;;;;;;;;5065639;28;20028;-52
2021/07/23 11:08:44;;;;;;;8.55;4.03;;;;;;;;;;5087838;28;20135;-50
2021/07/23 11:11:10;;;;;;;10.23;4.97;;;;;;;;;;5079772;28;20035;-51
2021/07/23 11:13:36;;;;;;;9.05;5.22;;;;;;;;;;5072000;28;20037;-50
2021/07/23 11:16:13;;;;;;;10.40;4.68;;;;;;;;;;5071978;28;20094;-50
2021/07/23 11:18:52;;;;;;;7.47;5.10;;;;;;;;;;5093058;28;20069;-50
2021/07/23 11:21:18;;;;;;;8.35;4.13;;;;;;;;;;5092945;28;20024;-51
2021/07/23 11:23:45;;;;;;;7.90;5.15;;;;;;;;;;5086031;28;20028;-51
2021/07/23 11:26:11;;;;;;;8.27;4.80;;;;;;;;;;5086228;28;20024;-53
2021/07/23 11:28:47;;;;;;;9.75;5.68;;;;;;;;;;5092687;28;20472;-50
2021/07/23 11:31:26;;;;;;;9.48;5.20;;;;;;;;;;5092706;28;20024;-50
2021/07/23 11:33:52;;;;;;;10.70;6.13;;;;;;;;;;5084838;28;20036;-50
2021/07/23 11:36:35;;;;;;;11.52;6.22;;;;;;;;;;5092310;28;20042;-50
2021/07/23 11:39:02;;;;;;;10.35;4.95;;;;;;;;;;5092528;28;20062;-50
2021/07/23 11:41:28;;;;;;;11.40;5.60;;;;;;;;;;5092408;28;20082;-50
2021/07/23 11:44:07;;;;;;;12.00;5.63;;;;;;;;;;5080780;28;20024;-52
2021/07/23 11:46:33;;;;;;;9.07;5.25;;;;;;;;;;5092461;28;20477;-51
2021/07/23 11:49:01;;;;;;;9.10;5.22;;;;;;;;;;5091752;28;20028;-50
2021/07/23 11:51:40;;;;;;;16.70;4.97;;;;;;;;;;5092520;28;20476;-51
2021/07/23 11:54:06;;;;;;;11.82;5.18;;;;;;;;;;5092466;28;20024;-50
2021/07/23 11:56:33;;;;;;;10.35;5.18;;;;;;;;;;5092244;28;20387;-50
2021/07/23 11:58:59;;;;;;;7.93;4.97;;;;;;;;;;5091977;28;20056;-50
2021/07/23 12:01:28;;;;;;;9.00;5.43;;;;;;;;;;5092091;28;20043;-50
2021/07/23 12:03:55;;;;;;;7.43;4.88;;;;;;;;;;5064857;28;20023;-51
2021/07/23 12:06:26;;;;;;;8.13;4.25;;;;;;;;;;5087933;28;20032;-50
2021/07/23 12:08:53;;;;;;;9.63;4.88;;;;;;;;;;5089256;28;20032;-51
2021/07/23 12:11:23;;;;;;;8.80;4.93;;;;;;;;;;5078102;28;20503;-50
2021/07/23 12:13:49;;;;;;;7.20;4.78;;;;;;;;;;5069272;28;20123;-50
2021/07/23 12:16:16;;;;;;;8.05;4.97;;;;;;;;;;5075172;28;20361;-50
2021/07/23 12:18:54;;;;;;;7.82;5.20;;;;;;;;;;5076174;28;20111;-50
2021/07/23 12:21:23;;;;;;;9.00;4.80;;;;;;;;;;5091825;28;20024;-50
2021/07/23 12:23:56;;;;;;;6.60;4.78;;;;;;;;;;5091804;28;20024;-50
2021/07/23 12:26:34;;;;;;;13.00;5.57;;;;;;;;;;5091796;28;20012;-50
2021/07/23 12:29:00;;;;;;;8.30;4.70;;;;;;;;;;5094986;28;20019;-52
2021/07/23 12:31:26;;;;;;;8.45;4.85;;;;;;;;;;5096375;28;20032;-51
2021/07/23 12:34:11;;;;;;;7.95;4.63;;;;;;;;;;5095988;28;20485;-50
2021/07/23 12:36:46;;;;;;;8.05;4.65;;;;;;;;;;5096054;28;20038;-50
2021/07/23 12:39:12;;;;;;;8.68;4.97;;;;;;;;;;5095568;28;20028;-50
2021/07/23 12:41:40;;;;;;;7.82;4.63;;;;;;;;;;5096072;28;20048;-52
2021/07/23 12:44:10;;;;;;;9.60;5.10;;;;;;;;;;5095823;28;20372;-51
2021/07/23 12:46:37;;;;;;;9.65;5.47;;;;;;;;;;5091500;28;20028;-53
2021/07/23 12:49:10;;;;;;;10.25;5.47;;;;;;;;;;5090731;28;20069;-51
2021/07/23 12:51:36;;;;;;;7.10;5.05;;;;;;;;;;5095701;28;20554;-51
2021/07/23 12:54:02;;;;;;;9.90;4.45;;;;;;;;;;5095765;28;20028;-50
2021/07/23 12:56:32;;;;;;;11.43;5.32;;;;;;;;;;5095906;28;20027;-51
2021/07/23 12:58:58;;;;;;;8.40;4.95;;;;;;;;;;5095390;28;20039;-50
2021/07/23 13:01:24;;;;;;;8.63;4.97;;;;;;;;;;5086303;28;20097;-50
2021/07/23 13:03:50;;;;;;;7.75;4.60;;;;;;;;;;5067973;28;20057;-52
2021/07/23 13:06:18;;;;;;;8.77;4.85;;;;;;;;;;5094213;28;20028;-53
2021/07/23 13:08:44;;;;;;;5.65;4.38;;;;;;;;;;5090861;28;20043;-51
2021/07/23 13:11:11;;;;;;;6.55;4.20;;;;;;;;;;5082470;28;20534;-51
2021/07/23 13:13:37;;;;;;;9.13;4.68;;;;;;;;;;5074172;28;20057;-50
2021/07/23 13:16:07;;;;;;;6.25;4.22;;;;;;;;;;5074679;28;20031;-50
2021/07/23 13:18:33;;;;;;;6.63;3.67;;;;;;;;;;5094524;28;20024;-51
2021/07/23 13:21:00;;;;;;;5.45;3.90;;;;;;;;;;5095491;28;20028;-51
2021/07/23 13:23:29;;;;;;;6.97;3.75;;;;;;;;;;5092711;28;20028;-52
2021/07/23 13:25:57;;;;;;;11.25;4.13;;;;;;;;;;5095367;28;20103;-55
2021/07/23 13:28:23;;;;;;;5.68;3.42;;;;;;;;;;5094600;28;20021;-51
2021/07/23 13:30:49;;;;;;;10.48;3.88;;;;;;;;;;5094761;28;20032;-51
2021/07/23 13:33:15;;;;;;;6.38;3.53;;;;;;;;;;5094897;28;20181;-51
2021/07/23 13:35:41;;;;;;;5.68;3.80;;;;;;;;;;5094906;28;20475;-52
2021/07/23 13:38:12;;;;;;;6.82;3.55;;;;;;;;;;5094475;28;20040;-51
2021/07/23 13:40:39;;;;;;;5.25;3.88;;;;;;;;;;5093978;28;20127;-53
2021/07/23 13:43:07;;;;;;;6.53;4.15;;;;;;;;;;5094786;28;20028;-51
2021/07/23 13:45:33;;;;;;;8.52;3.97;;;;;;;;;;5094262;28;20380;-50
2021/07/23 13:47:59;;;;;;;5.20;3.35;;;;;;;;;;5080772;28;20474;-51
2021/07/23 13:50:25;;;;;;;6.63;3.72;;;;;;;;;;5094471;28;20535;-52
2021/07/23 13:52:52;;;;;;;5.60;3.47;;;;;;;;;;5094704;28;20103;-50
2021/07/23 13:55:18;;;;;;;5.13;3.47;;;;;;;;;;5094198;28;20035;-51
2021/07/23 13:57:44;;;;;;;6.82;3.58;;;;;;;;;;5087010;28;20028;-51
2021/07/23 14:00:10;;;;;;;8.77;3.28;;;;;;;;;;5094091;28;20020;-52
2021/07/23 14:02:40;;;;;;;5.43;3.03;;;;;;;;;;5082985;28;20108;-54
2021/07/23 14:05:07;;;;;;;5.63;3.60;;;;;;;;;;5080291;28;20103;-51
2021/07/23 14:07:33;;;;;;;5.00;2.97;;;;;;;;;;5085093;28;20422;-51
2021/07/23 14:10:03;;;;;;;5.57;2.97;;;;;;;;;;5090414;28;20118;-55
2021/07/23 14:12:30;;;;;;;4.72;2.60;;;;;;;;;;5068759;28;20026;-51
2021/07/23 14:14:56;;;;;;;4.63;2.83;;;;;;;;;;5056220;28;20621;-52
2021/07/23 14:17:22;;;;;;;5.55;3.63;;;;;;;;;;5094405;28;20151;-52
2021/07/23 14:19:48;;;;;;;9.43;3.65;;;;;;;;;;5093510;28;20073;-53
2021/07/23 14:22:14;;;;;;;9.63;3.03;;;;;;;;;;5093988;28;20024;-50
2021/07/23 14:24:40;;;;;;;5.32;3.40;;;;;;;;;;5093830;28;20516;-51
2021/07/23 14:27:06;;;;;;;4.55;2.80;;;;;;;;;;5093939;28;20024;-51
2021/07/23 14:29:33;;;;;;;4.72;2.80;;;;;;;;;;5093398;28;20051;-51